sensor_id;sensor_type;location;lat;lon;timestamp;temperature;humidity
23729;DHT22;12045;60.214;24.724;2022-12-11T00:01:24;-1.50;99.90
23729;DHT22;12045;60.214;24.724;2022-12-11T00:03:51;-1.40;99.90
23729;DHT22;12045;60.214;24.724;2022-12-11T00:06:20;-1.30;99.90
23729;DHT22;12045;60.214;24.724;2022-12-11T00:08:53;-1.40;99.90
23729;DHT22;12045;60.214;24.724;2022-12-11T00:11:21;-1.50;99.90
23729;DHT22;12045;60.214;24.724;2022-12-11T00:13:49;-1.50;99.90
23729;DHT22;12045;60.214;24.724;2022-12-11T00:16:18;-1.20;99.90
23729;DHT22;12045;60.214;24.724;2022-12-11T00:18:52;-1.40;99.90
23729;DHT22;12045;60.214;24.724;2022-12-11T00:21:20;-1.30;99.90
23729;DHT22;12045;60.214;24.724;2022-12-11T00:23:47;-1.30;99.90
23729;DHT22;12045;60.214;24.724;2022-12-11T00:26:15;-1.80;99.90
23729;DHT22;12045;60.214;24.724;2022-12-11T00:28:43;-1.70;99.90
23729;DHT22;12045;60.214;24.724;2022-12-11T00:31:17;-1.20;99.90
23729;DHT22;12045;60.214;24.724;2022-12-11T00:33:45;-1.80;99.90
23729;DHT22;12045;60.214;24.724;2022-12-11T00:36:18;-1.50;99.90
23729;DHT22;12045;60.214;24.724;2022-12-11T00:38:47;-0.60;99.90
23729;DHT22;12045;60.214;24.724;2022-12-11T00:41:15;-1.40;99.90
23729;DHT22;12045;60.214;24.724;2022-12-11T00:43:43;-1.50;99.90
23729;DHT22;12045;60.214;24.724;2022-12-11T00:46:11;-1.50;99.90
23729;DHT22;12045;60.214;24.724;2022-12-11T00:48:38;-1.50;99.90
23729;DHT22;12045;60.214;24.724;2022-12-11T00:51:06;-1.50;99.90
23729;DHT22;12045;60.214;24.724;2022-12-11T00:53:34;-1.50;99.90
23729;DHT22;12045;60.214;24.724;2022-12-11T00:56:07;-1.30;99.90
23729;DHT22;12045;60.214;24.724;2022-12-11T00:58:35;-1.70;99.90
23729;DHT22;12045;60.214;24.724;2022-12-11T01:01:11;-1.70;99.90
23729;DHT22;12045;60.214;24.724;2022-12-11T01:03:39;-1.50;99.90
23729;DHT22;12045;60.214;24.724;2022-12-11T01:06:06;-1.80;99.90
23729;DHT22;12045;60.214;24.724;2022-12-11T01:08:34;-1.60;99.90
23729;DHT22;12045;60.214;24.724;2022-12-11T01:11:07;-1.80;99.90
23729;DHT22;12045;60.214;24.724;2022-12-11T01:13:35;-2.00;99.90
23729;DHT22;12045;60.214;24.724;2022-12-11T01:16:21;-2.00;99.90
23729;DHT22;12045;60.214;24.724;2022-12-11T01:18:49;-2.10;99.90
23729;DHT22;12045;60.214;24.724;2022-12-11T01:21:16;-1.10;99.90
23729;DHT22;12045;60.214;24.724;2022-12-11T01:23:43;-2.00;99.90
23729;DHT22;12045;60.214;24.724;2022-12-11T01:26:13;-1.20;99.90
23729;DHT22;12045;60.214;24.724;2022-12-11T01:28:42;-1.90;99.90
23729;DHT22;12045;60.214;24.724;2022-12-11T01:31:15;-1.90;99.90
23729;DHT22;12045;60.214;24.724;2022-12-11T01:33:44;-2.00;99.90
23729;DHT22;12045;60.214;24.724;2022-12-11T01:36:17;-2.20;99.90
23729;DHT22;12045;60.214;24.724;2022-12-11T01:38:46;-2.30;99.90
23729;DHT22;12045;60.214;24.724;2022-12-11T01:41:15;-2.20;99.90
23729;DHT22;12045;60.214;24.724;2022-12-11T01:43:56;-3.00;99.90
23729;DHT22;12045;60.214;24.724;2022-12-11T01:46:24;-2.10;99.90
23729;DHT22;12045;60.214;24.724;2022-12-11T01:48:53;-2.40;99.90
23729;DHT22;12045;60.214;24.724;2022-12-11T01:51:21;-3.10;99.90
23729;DHT22;12045;60.214;24.724;2022-12-11T01:53:54;-2.10;99.90
23729;DHT22;12045;60.214;24.724;2022-12-11T01:56:23;-2.20;99.90
23729;DHT22;12045;60.214;24.724;2022-12-11T01:58:56;-2.10;99.90
23729;DHT22;12045;60.214;24.724;2022-12-11T02:04:13;-2.20;99.90
23729;DHT22;12045;60.214;24.724;2022-12-11T02:06:43;-2.30;99.90
23729;DHT22;12045;60.214;24.724;2022-12-11T02:09:14;-0.30;99.90
23729;DHT22;12045;60.214;24.724;2022-12-11T02:14:22;-2.10;99.90
23729;DHT22;12045;60.214;24.724;2022-12-11T02:17:09;0.30;99.90
23729;DHT22;12045;60.214;24.724;2022-12-11T02:22:41;-2.30;99.90
23729;DHT22;12045;60.214;24.724;2022-12-11T02:25:32;-2.10;99.90
23729;DHT22;12045;60.214;24.724;2022-12-11T02:28:22;-2.50;99.90
23729;DHT22;12045;60.214;24.724;2022-12-11T02:30:54;-2.40;99.90
23729;DHT22;12045;60.214;24.724;2022-12-11T02:33:44;-2.30;99.90
23729;DHT22;12045;60.214;24.724;2022-12-11T02:36:13;-2.20;99.90
23729;DHT22;12045;60.214;24.724;2022-12-11T02:38:42;-2.30;99.90
23729;DHT22;12045;60.214;24.724;2022-12-11T02:41:18;-2.50;99.90
23729;DHT22;12045;60.214;24.724;2022-12-11T02:43:48;-2.40;99.90
23729;DHT22;12045;60.214;24.724;2022-12-11T02:46:18;-2.60;99.90
23729;DHT22;12045;60.214;24.724;2022-12-11T02:48:47;-2.40;99.90
23729;DHT22;12045;60.214;24.724;2022-12-11T02:51:20;-2.50;99.90
23729;DHT22;12045;60.214;24.724;2022-12-11T02:53:50;-2.50;99.90
23729;DHT22;12045;60.214;24.724;2022-12-11T02:56:29;-2.00;99.90
23729;DHT22;12045;60.214;24.724;2022-12-11T02:59:04;-2.40;99.90
23729;DHT22;12045;60.214;24.724;2022-12-11T03:01:34;-2.60;99.90
23729;DHT22;12045;60.214;24.724;2022-12-11T03:04:02;-2.50;99.90
23729;DHT22;12045;60.214;24.724;2022-12-11T03:06:35;-2.30;99.90
23729;DHT22;12045;60.214;24.724;2022-12-11T03:09:04;-1.90;99.90
23729;DHT22;12045;60.214;24.724;2022-12-11T03:11:31;-2.30;99.90
23729;DHT22;12045;60.214;24.724;2022-12-11T03:14:00;-2.30;99.90
23729;DHT22;12045;60.214;24.724;2022-12-11T03:16:41;-2.40;99.90
23729;DHT22;12045;60.214;24.724;2022-12-11T03:19:32;-2.00;99.90
23729;DHT22;12045;60.214;24.724;2022-12-11T03:25:23;-2.30;99.90
23729;DHT22;12045;60.214;24.724;2022-12-11T03:28:10;-2.40;99.90
23729;DHT22;12045;60.214;24.724;2022-12-11T03:30:40;-2.20;99.90
23729;DHT22;12045;60.214;24.724;2022-12-11T03:33:21;-2.80;99.90
23729;DHT22;12045;60.214;24.724;2022-12-11T03:36:02;-2.50;99.90
23729;DHT22;12045;60.214;24.724;2022-12-11T03:38:37;-0.60;99.90
23729;DHT22;12045;60.214;24.724;2022-12-11T03:41:09;-2.50;99.90
23729;DHT22;12045;60.214;24.724;2022-12-11T03:43:39;-2.50;99.90
23729;DHT22;12045;60.214;24.724;2022-12-11T03:46:08;-2.50;99.90
23729;DHT22;12045;60.214;24.724;2022-12-11T03:48:37;-1.00;99.90
23729;DHT22;12045;60.214;24.724;2022-12-11T03:51:07;-1.90;99.90
23729;DHT22;12045;60.214;24.724;2022-12-11T03:53:36;-2.80;99.90
23729;DHT22;12045;60.214;24.724;2022-12-11T03:56:05;-2.90;99.90
23729;DHT22;12045;60.214;24.724;2022-12-11T03:58:34;-2.80;99.90
23729;DHT22;12045;60.214;24.724;2022-12-11T04:01:02;-2.70;99.90
23729;DHT22;12045;60.214;24.724;2022-12-11T04:03:29;-0.70;99.90
23729;DHT22;12045;60.214;24.724;2022-12-11T04:05:57;-2.60;99.90
23729;DHT22;12045;60.214;24.724;2022-12-11T04:08:24;-2.50;99.90
23729;DHT22;12045;60.214;24.724;2022-12-11T04:10:52;-2.70;99.90
23729;DHT22;12045;60.214;24.724;2022-12-11T04:13:40;-3.30;99.90
23729;DHT22;12045;60.214;24.724;2022-12-11T04:16:08;-3.10;99.90
23729;DHT22;12045;60.214;24.724;2022-12-11T04:18:35;-3.10;99.90
23729;DHT22;12045;60.214;24.724;2022-12-11T04:21:21;-3.20;99.90
23729;DHT22;12045;60.214;24.724;2022-12-11T04:24:08;-2.80;99.90
23729;DHT22;12045;60.214;24.724;2022-12-11T04:26:43;-3.00;99.90
23729;DHT22;12045;60.214;24.724;2022-12-11T04:29:11;-2.80;99.90
23729;DHT22;12045;60.214;24.724;2022-12-11T04:31:39;-3.00;99.90
23729;DHT22;12045;60.214;24.724;2022-12-11T04:34:06;-2.90;99.90
23729;DHT22;12045;60.214;24.724;2022-12-11T04:36:34;-2.90;99.90
23729;DHT22;12045;60.214;24.724;2022-12-11T04:39:04;-3.00;99.90
23729;DHT22;12045;60.214;24.724;2022-12-11T04:41:32;-3.30;99.90
23729;DHT22;12045;60.214;24.724;2022-12-11T04:43:59;-3.30;99.90
23729;DHT22;12045;60.214;24.724;2022-12-11T04:46:27;-3.20;99.90
23729;DHT22;12045;60.214;24.724;2022-12-11T04:48:54;-3.20;99.90
23729;DHT22;12045;60.214;24.724;2022-12-11T04:51:24;-3.20;99.90
23729;DHT22;12045;60.214;24.724;2022-12-11T04:53:53;-3.30;99.90
23729;DHT22;12045;60.214;24.724;2022-12-11T04:56:21;-2.60;99.90
23729;DHT22;12045;60.214;24.724;2022-12-11T04:58:49;-3.20;99.90
23729;DHT22;12045;60.214;24.724;2022-12-11T05:01:18;-3.20;99.90
23729;DHT22;12045;60.214;24.724;2022-12-11T05:03:47;-3.20;99.90
23729;DHT22;12045;60.214;24.724;2022-12-11T05:06:14;-3.20;99.90
23729;DHT22;12045;60.214;24.724;2022-12-11T05:08:43;-2.40;99.90
23729;DHT22;12045;60.214;24.724;2022-12-11T05:11:13;-3.40;99.90
23729;DHT22;12045;60.214;24.724;2022-12-11T05:13:42;-3.00;99.90
23729;DHT22;12045;60.214;24.724;2022-12-11T05:16:12;-2.70;99.90
23729;DHT22;12045;60.214;24.724;2022-12-11T05:18:40;-3.00;99.90
23729;DHT22;12045;60.214;24.724;2022-12-11T05:21:10;-3.80;99.90
23729;DHT22;12045;60.214;24.724;2022-12-11T05:23:38;-2.50;99.90
23729;DHT22;12045;60.214;24.724;2022-12-11T05:26:09;-3.00;99.90
23729;DHT22;12045;60.214;24.724;2022-12-11T05:28:38;-3.20;99.90
23729;DHT22;12045;60.214;24.724;2022-12-11T05:31:15;-0.20;99.90
23729;DHT22;12045;60.214;24.724;2022-12-11T05:33:44;-3.30;99.90
23729;DHT22;12045;60.214;24.724;2022-12-11T05:36:24;-3.30;99.90
23729;DHT22;12045;60.214;24.724;2022-12-11T05:38:52;-3.20;99.90
23729;DHT22;12045;60.214;24.724;2022-12-11T05:41:23;-2.40;99.90
23729;DHT22;12045;60.214;24.724;2022-12-11T05:43:51;-3.10;99.90
23729;DHT22;12045;60.214;24.724;2022-12-11T05:46:24;-3.00;99.90
23729;DHT22;12045;60.214;24.724;2022-12-11T05:48:55;-3.40;99.90
23729;DHT22;12045;60.214;24.724;2022-12-11T05:51:23;-3.30;99.90
23729;DHT22;12045;60.214;24.724;2022-12-11T05:53:51;-2.90;99.90
23729;DHT22;12045;60.214;24.724;2022-12-11T05:56:30;-3.20;99.90
23729;DHT22;12045;60.214;24.724;2022-12-11T05:58:59;-3.10;99.90
23729;DHT22;12045;60.214;24.724;2022-12-11T06:01:36;-3.20;99.90
23729;DHT22;12045;60.214;24.724;2022-12-11T06:04:05;-3.40;99.90
23729;DHT22;12045;60.214;24.724;2022-12-11T06:06:33;-3.50;99.90
23729;DHT22;12045;60.214;24.724;2022-12-11T06:09:03;-3.50;99.90
23729;DHT22;12045;60.214;24.724;2022-12-11T06:11:32;-3.40;99.90
23729;DHT22;12045;60.214;24.724;2022-12-11T06:14:01;-3.40;99.90
23729;DHT22;12045;60.214;24.724;2022-12-11T06:16:29;-3.40;99.90
23729;DHT22;12045;60.214;24.724;2022-12-11T06:18:57;-3.40;99.90
23729;DHT22;12045;60.214;24.724;2022-12-11T06:21:27;-3.30;99.90
23729;DHT22;12045;60.214;24.724;2022-12-11T06:23:57;-3.20;99.90
23729;DHT22;12045;60.214;24.724;2022-12-11T06:26:26;-3.30;99.90
23729;DHT22;12045;60.214;24.724;2022-12-11T06:28:54;-3.40;99.90
23729;DHT22;12045;60.214;24.724;2022-12-11T06:31:21;-3.40;99.90
23729;DHT22;12045;60.214;24.724;2022-12-11T06:33:49;-3.50;99.90
23729;DHT22;12045;60.214;24.724;2022-12-11T06:36:19;-3.30;99.90
23729;DHT22;12045;60.214;24.724;2022-12-11T06:38:46;-3.60;99.90
23729;DHT22;12045;60.214;24.724;2022-12-11T06:41:14;-3.80;99.90
23729;DHT22;12045;60.214;24.724;2022-12-11T06:43:42;-3.80;99.90
23729;DHT22;12045;60.214;24.724;2022-12-11T06:46:12;-3.80;99.90
23729;DHT22;12045;60.214;24.724;2022-12-11T06:48:40;-3.60;99.90
23729;DHT22;12045;60.214;24.724;2022-12-11T06:51:21;-3.60;99.90
23729;DHT22;12045;60.214;24.724;2022-12-11T06:53:51;-3.70;99.90
23729;DHT22;12045;60.214;24.724;2022-12-11T06:56:19;-3.20;99.90
23729;DHT22;12045;60.214;24.724;2022-12-11T06:58:47;-3.80;99.90
23729;DHT22;12045;60.214;24.724;2022-12-11T07:01:24;-3.80;99.90
23729;DHT22;12045;60.214;24.724;2022-12-11T07:03:56;-3.90;99.90
23729;DHT22;12045;60.214;24.724;2022-12-11T07:06:26;-3.80;99.90
23729;DHT22;12045;60.214;24.724;2022-12-11T07:08:53;-3.80;99.90
23729;DHT22;12045;60.214;24.724;2022-12-11T07:11:21;-3.40;99.90
23729;DHT22;12045;60.214;24.724;2022-12-11T07:13:49;-3.40;99.90
23729;DHT22;12045;60.214;24.724;2022-12-11T07:16:17;-2.80;99.90
23729;DHT22;12045;60.214;24.724;2022-12-11T07:18:49;-4.00;99.90
23729;DHT22;12045;60.214;24.724;2022-12-11T07:21:18;-4.00;99.90
23729;DHT22;12045;60.214;24.724;2022-12-11T07:23:46;-3.90;99.90
23729;DHT22;12045;60.214;24.724;2022-12-11T07:26:19;-4.20;99.90
23729;DHT22;12045;60.214;24.724;2022-12-11T07:28:48;-4.10;99.90
23729;DHT22;12045;60.214;24.724;2022-12-11T07:31:18;-4.20;99.90
23729;DHT22;12045;60.214;24.724;2022-12-11T07:33:46;-4.20;99.90
23729;DHT22;12045;60.214;24.724;2022-12-11T07:36:14;-3.60;99.90
23729;DHT22;12045;60.214;24.724;2022-12-11T07:38:41;-4.20;99.90
23729;DHT22;12045;60.214;24.724;2022-12-11T07:41:11;-4.10;99.90
23729;DHT22;12045;60.214;24.724;2022-12-11T07:43:40;-4.10;99.90
23729;DHT22;12045;60.214;24.724;2022-12-11T07:46:14;-4.10;99.90
23729;DHT22;12045;60.214;24.724;2022-12-11T07:48:44;-3.80;99.90
23729;DHT22;12045;60.214;24.724;2022-12-11T07:51:16;-4.20;99.90
23729;DHT22;12045;60.214;24.724;2022-12-11T07:53:45;-4.10;99.90
23729;DHT22;12045;60.214;24.724;2022-12-11T07:56:14;-4.30;99.90
23729;DHT22;12045;60.214;24.724;2022-12-11T07:58:42;-4.10;99.90
23729;DHT22;12045;60.214;24.724;2022-12-11T08:01:14;-4.00;99.90
23729;DHT22;12045;60.214;24.724;2022-12-11T08:03:42;-4.10;99.90
23729;DHT22;12045;60.214;24.724;2022-12-11T08:06:11;-4.20;99.90
23729;DHT22;12045;60.214;24.724;2022-12-11T08:08:39;-2.80;99.90
23729;DHT22;12045;60.214;24.724;2022-12-11T08:11:12;-3.30;99.90
23729;DHT22;12045;60.214;24.724;2022-12-11T08:13:42;-4.20;99.90
23729;DHT22;12045;60.214;24.724;2022-12-11T08:16:12;-4.10;99.90
23729;DHT22;12045;60.214;24.724;2022-12-11T08:18:42;-4.50;99.90
23729;DHT22;12045;60.214;24.724;2022-12-11T08:21:15;-4.10;99.90
23729;DHT22;12045;60.214;24.724;2022-12-11T08:23:43;-4.10;99.90
23729;DHT22;12045;60.214;24.724;2022-12-11T08:26:13;-4.20;99.90
23729;DHT22;12045;60.214;24.724;2022-12-11T08:28:41;-4.00;99.90
23729;DHT22;12045;60.214;24.724;2022-12-11T08:31:10;-3.80;99.90
23729;DHT22;12045;60.214;24.724;2022-12-11T08:33:38;-3.80;99.90
23729;DHT22;12045;60.214;24.724;2022-12-11T08:36:13;-3.30;99.90
23729;DHT22;12045;60.214;24.724;2022-12-11T08:38:41;-3.60;99.90
23729;DHT22;12045;60.214;24.724;2022-12-11T08:41:20;-3.80;99.90
23729;DHT22;12045;60.214;24.724;2022-12-11T08:43:48;-4.00;99.90
23729;DHT22;12045;60.214;24.724;2022-12-11T08:46:16;-4.00;99.90
23729;DHT22;12045;60.214;24.724;2022-12-11T08:48:43;-4.00;99.90
23729;DHT22;12045;60.214;24.724;2022-12-11T08:51:13;-3.90;99.90
23729;DHT22;12045;60.214;24.724;2022-12-11T08:53:41;-4.70;99.90
23729;DHT22;12045;60.214;24.724;2022-12-11T08:56:14;-3.90;99.90
23729;DHT22;12045;60.214;24.724;2022-12-11T08:58:43;-3.60;99.90
23729;DHT22;12045;60.214;24.724;2022-12-11T09:01:29;-3.70;99.90
23729;DHT22;12045;60.214;24.724;2022-12-11T09:03:57;-3.50;99.90
23729;DHT22;12045;60.214;24.724;2022-12-11T09:06:26;-3.00;99.90
23729;DHT22;12045;60.214;24.724;2022-12-11T09:08:54;-3.30;99.90
23729;DHT22;12045;60.214;24.724;2022-12-11T09:11:25;-3.30;99.90
23729;DHT22;12045;60.214;24.724;2022-12-11T09:13:53;-3.40;99.90
23729;DHT22;12045;60.214;24.724;2022-12-11T09:16:23;-3.50;99.90
23729;DHT22;12045;60.214;24.724;2022-12-11T09:18:53;-1.50;99.90
23729;DHT22;12045;60.214;24.724;2022-12-11T09:21:23;-4.10;99.90
23729;DHT22;12045;60.214;24.724;2022-12-11T09:23:59;-3.60;99.90
23729;DHT22;12045;60.214;24.724;2022-12-11T09:26:28;-3.30;99.90
23729;DHT22;12045;60.214;24.724;2022-12-11T09:28:57;-1.50;99.90
23729;DHT22;12045;60.214;24.724;2022-12-11T09:31:27;-3.00;99.90
23729;DHT22;12045;60.214;24.724;2022-12-11T09:33:57;-3.20;99.90
23729;DHT22;12045;60.214;24.724;2022-12-11T09:36:25;-2.10;99.90
23729;DHT22;12045;60.214;24.724;2022-12-11T09:38:52;-2.90;99.90
23729;DHT22;12045;60.214;24.724;2022-12-11T09:46:38;-2.20;99.90
23729;DHT22;12045;60.214;24.724;2022-12-11T09:52:33;-2.70;99.90
23729;DHT22;12045;60.214;24.724;2022-12-11T09:54:55;-2.70;99.90
23729;DHT22;12045;60.214;24.724;2022-12-11T10:00:26;-3.00;99.90
23729;DHT22;12045;60.214;24.724;2022-12-11T10:08:54;-2.90;99.90
23729;DHT22;12045;60.214;24.724;2022-12-11T10:11:53;-2.80;99.90
23729;DHT22;12045;60.214;24.724;2022-12-11T10:17:21;-2.50;99.90
23729;DHT22;12045;60.214;24.724;2022-12-11T10:19:50;-2.30;99.90
23729;DHT22;12045;60.214;24.724;2022-12-11T10:22:21;-2.70;99.90
23729;DHT22;12045;60.214;24.724;2022-12-11T10:25:05;-2.80;99.90
23729;DHT22;12045;60.214;24.724;2022-12-11T10:27:39;-2.30;99.90
23729;DHT22;12045;60.214;24.724;2022-12-11T10:30:16;-1.90;99.90
23729;DHT22;12045;60.214;24.724;2022-12-11T10:33:07;-2.80;99.90
23729;DHT22;12045;60.214;24.724;2022-12-11T10:35:55;-2.30;99.90
23729;DHT22;12045;60.214;24.724;2022-12-11T10:38:35;-2.10;99.90
23729;DHT22;12045;60.214;24.724;2022-12-11T10:41:19;-2.30;99.90
23729;DHT22;12045;60.214;24.724;2022-12-11T10:43:49;-2.50;99.90
23729;DHT22;12045;60.214;24.724;2022-12-11T10:46:26;-2.50;99.90
23729;DHT22;12045;60.214;24.724;2022-12-11T10:48:56;-2.00;99.90
23729;DHT22;12045;60.214;24.724;2022-12-11T10:51:33;-2.00;99.90
23729;DHT22;12045;60.214;24.724;2022-12-11T10:54:28;-2.20;99.90
23729;DHT22;12045;60.214;24.724;2022-12-11T10:56:55;-1.80;99.90
23729;DHT22;12045;60.214;24.724;2022-12-11T10:59:37;-0.90;99.90
23729;DHT22;12045;60.214;24.724;2022-12-11T11:02:06;-1.50;99.90
23729;DHT22;12045;60.214;24.724;2022-12-11T11:04:44;-2.00;99.90
23729;DHT22;12045;60.214;24.724;2022-12-11T11:09:46;-1.90;99.90
23729;DHT22;12045;60.214;24.724;2022-12-11T11:12:26;-2.40;99.90
23729;DHT22;12045;60.214;24.724;2022-12-11T11:15:00;-3.30;99.90
23729;DHT22;12045;60.214;24.724;2022-12-11T11:17:30;-2.60;99.90
23729;DHT22;12045;60.214;24.724;2022-12-11T11:20:09;-2.80;99.90
23729;DHT22;12045;60.214;24.724;2022-12-11T11:22:43;-2.50;99.90
23729;DHT22;12045;60.214;24.724;2022-12-11T11:25:19;-3.30;99.90
23729;DHT22;12045;60.214;24.724;2022-12-11T11:27:54;-3.10;99.90
23729;DHT22;12045;60.214;24.724;2022-12-11T11:33:01;-2.70;99.90
23729;DHT22;12045;60.214;24.724;2022-12-11T11:35:31;-3.10;99.90
23729;DHT22;12045;60.214;24.724;2022-12-11T11:43:53;-2.90;99.90
23729;DHT22;12045;60.214;24.724;2022-12-11T11:46:29;-2.80;99.90
23729;DHT22;12045;60.214;24.724;2022-12-11T11:51:44;-2.70;99.90
23729;DHT22;12045;60.214;24.724;2022-12-11T11:57:57;-2.50;99.90
23729;DHT22;12045;60.214;24.724;2022-12-11T12:00:28;-2.70;99.90
23729;DHT22;12045;60.214;24.724;2022-12-11T12:03:05;-2.10;99.90
23729;DHT22;12045;60.214;24.724;2022-12-11T12:08:38;-2.90;99.90
23729;DHT22;12045;60.214;24.724;2022-12-11T12:14:00;-2.80;99.90
23729;DHT22;12045;60.214;24.724;2022-12-11T12:22:48;-2.70;99.90
23729;DHT22;12045;60.214;24.724;2022-12-11T12:39:04;-2.40;99.90
23729;DHT22;12045;60.214;24.724;2022-12-11T12:44:44;-2.00;99.90
23729;DHT22;12045;60.214;24.724;2022-12-11T12:47:16;-2.40;99.90
23729;DHT22;12045;60.214;24.724;2022-12-11T12:49:48;-2.50;99.90
23729;DHT22;12045;60.214;24.724;2022-12-11T12:52:31;-2.40;99.90
23729;DHT22;12045;60.214;24.724;2022-12-11T13:00:33;-1.50;99.90
23729;DHT22;12045;60.214;24.724;2022-12-11T13:03:19;-2.00;99.90
23729;DHT22;12045;60.214;24.724;2022-12-11T13:05:57;-1.90;99.90
23729;DHT22;12045;60.214;24.724;2022-12-11T13:08:41;-2.10;99.90
23729;DHT22;12045;60.214;24.724;2022-12-11T13:11:11;-1.80;99.90
23729;DHT22;12045;60.214;24.724;2022-12-11T13:13:42;-2.00;99.90
23729;DHT22;12045;60.214;24.724;2022-12-11T13:18:45;-1.90;99.90
23729;DHT22;12045;60.214;24.724;2022-12-11T13:21:30;-2.10;99.90
23729;DHT22;12045;60.214;24.724;2022-12-11T13:26:48;-2.00;99.90
23729;DHT22;12045;60.214;24.724;2022-12-11T13:29:37;0.60;99.90
23729;DHT22;12045;60.214;24.724;2022-12-11T13:34:39;-1.50;99.90
23729;DHT22;12045;60.214;24.724;2022-12-11T13:39:48;-1.30;99.90
23729;DHT22;12045;60.214;24.724;2022-12-11T13:42:27;-1.50;99.90
23729;DHT22;12045;60.214;24.724;2022-12-11T13:44:56;-1.40;99.90
23729;DHT22;12045;60.214;24.724;2022-12-11T13:47:24;-1.60;99.90
23729;DHT22;12045;60.214;24.724;2022-12-11T13:49:55;-1.50;99.90
23729;DHT22;12045;60.214;24.724;2022-12-11T13:52:26;-0.30;99.90
23729;DHT22;12045;60.214;24.724;2022-12-11T13:54:55;-1.40;99.90
23729;DHT22;12045;60.214;24.724;2022-12-11T13:57:26;-1.50;99.90
23729;DHT22;12045;60.214;24.724;2022-12-11T13:59:57;-1.60;99.90
23729;DHT22;12045;60.214;24.724;2022-12-11T14:02:33;-1.50;99.90
23729;DHT22;12045;60.214;24.724;2022-12-11T14:05:04;-2.30;99.90
23729;DHT22;12045;60.214;24.724;2022-12-11T14:07:37;-1.30;99.90
23729;DHT22;12045;60.214;24.724;2022-12-11T14:10:25;-0.10;99.90
23729;DHT22;12045;60.214;24.724;2022-12-11T14:15:31;-1.40;99.90
23729;DHT22;12045;60.214;24.724;2022-12-11T14:17:59;-0.90;99.90
23729;DHT22;12045;60.214;24.724;2022-12-11T14:20:32;-1.50;99.90
23729;DHT22;12045;60.214;24.724;2022-12-11T14:23:06;-1.10;99.90
23729;DHT22;12045;60.214;24.724;2022-12-11T14:25:34;-1.30;99.90
23729;DHT22;12045;60.214;24.724;2022-12-11T14:28:01;-1.40;99.90
23729;DHT22;12045;60.214;24.724;2022-12-11T14:30:32;-1.10;99.90
23729;DHT22;12045;60.214;24.724;2022-12-11T14:33:03;0.80;99.90
23729;DHT22;12045;60.214;24.724;2022-12-11T14:35:34;-1.50;99.90
23729;DHT22;12045;60.214;24.724;2022-12-11T14:38:12;-0.20;99.90
23729;DHT22;12045;60.214;24.724;2022-12-11T14:40:46;-1.70;99.90
23729;DHT22;12045;60.214;24.724;2022-12-11T14:43:29;-1.70;99.90
23729;DHT22;12045;60.214;24.724;2022-12-11T14:46:03;1.70;99.90
23729;DHT22;12045;60.214;24.724;2022-12-11T14:48:36;-1.90;99.90
23729;DHT22;12045;60.214;24.724;2022-12-11T14:51:09;-1.40;99.90
23729;DHT22;12045;60.214;24.724;2022-12-11T14:53:45;-1.60;99.90
23729;DHT22;12045;60.214;24.724;2022-12-11T14:56:19;-1.40;99.90
23729;DHT22;12045;60.214;24.724;2022-12-11T14:58:58;-1.70;99.90
23729;DHT22;12045;60.214;24.724;2022-12-11T15:01:31;-1.40;99.90
23729;DHT22;12045;60.214;24.724;2022-12-11T15:06:48;-1.30;99.90
23729;DHT22;12045;60.214;24.724;2022-12-11T15:09:26;-1.50;99.90
23729;DHT22;12045;60.214;24.724;2022-12-11T15:11:57;-1.70;99.90
23729;DHT22;12045;60.214;24.724;2022-12-11T15:14:25;-1.40;99.90
23729;DHT22;12045;60.214;24.724;2022-12-11T15:16:55;-1.10;99.90
23729;DHT22;12045;60.214;24.724;2022-12-11T15:19:31;-1.50;99.90
23729;DHT22;12045;60.214;24.724;2022-12-11T15:22:02;-1.90;99.90
23729;DHT22;12045;60.214;24.724;2022-12-11T15:24:39;-1.80;99.90
23729;DHT22;12045;60.214;24.724;2022-12-11T15:27:43;-1.80;99.90
23729;DHT22;12045;60.214;24.724;2022-12-11T15:32:40;-1.50;99.90
23729;DHT22;12045;60.214;24.724;2022-12-11T15:35:25;-0.40;99.90
23729;DHT22;12045;60.214;24.724;2022-12-11T15:37:54;-0.90;99.90
23729;DHT22;12045;60.214;24.724;2022-12-11T15:40:22;-1.60;99.90
23729;DHT22;12045;60.214;24.724;2022-12-11T15:42:51;-1.40;99.90
23729;DHT22;12045;60.214;24.724;2022-12-11T15:45:24;-1.60;99.90
23729;DHT22;12045;60.214;24.724;2022-12-11T15:47:51;-1.70;99.90
23729;DHT22;12045;60.214;24.724;2022-12-11T15:50:23;-1.70;99.90
23729;DHT22;12045;60.214;24.724;2022-12-11T15:52:53;-1.50;99.90
23729;DHT22;12045;60.214;24.724;2022-12-11T15:55:22;-1.70;99.90
23729;DHT22;12045;60.214;24.724;2022-12-11T15:58:03;-2.10;99.90
23729;DHT22;12045;60.214;24.724;2022-12-11T16:00:31;-2.10;99.90
23729;DHT22;12045;60.214;24.724;2022-12-11T16:02:58;-1.60;99.90
23729;DHT22;12045;60.214;24.724;2022-12-11T16:05:26;-0.60;99.90
23729;DHT22;12045;60.214;24.724;2022-12-11T16:07:53;0.40;99.90
23729;DHT22;12045;60.214;24.724;2022-12-11T16:10:25;-1.70;99.90
23729;DHT22;12045;60.214;24.724;2022-12-11T16:12:53;-1.70;99.90
23729;DHT22;12045;60.214;24.724;2022-12-11T16:15:26;-1.70;99.90
23729;DHT22;12045;60.214;24.724;2022-12-11T16:18:02;-1.60;99.90
23729;DHT22;12045;60.214;24.724;2022-12-11T16:20:30;-1.40;99.90
23729;DHT22;12045;60.214;24.724;2022-12-11T16:22:58;-1.80;99.90
23729;DHT22;12045;60.214;24.724;2022-12-11T16:25:26;-1.60;99.90
23729;DHT22;12045;60.214;24.724;2022-12-11T16:27:56;-0.70;99.90
23729;DHT22;12045;60.214;24.724;2022-12-11T16:30:24;-1.50;99.90
23729;DHT22;12045;60.214;24.724;2022-12-11T16:32:53;0.40;99.90
23729;DHT22;12045;60.214;24.724;2022-12-11T16:35:20;-1.40;99.90
23729;DHT22;12045;60.214;24.724;2022-12-11T16:37:49;1.10;99.90
23729;DHT22;12045;60.214;24.724;2022-12-11T16:40:18;1.30;99.90
23729;DHT22;12045;60.214;24.724;2022-12-11T16:42:46;-1.50;99.90
23729;DHT22;12045;60.214;24.724;2022-12-11T16:45:19;-0.90;99.90
23729;DHT22;12045;60.214;24.724;2022-12-11T16:47:47;-1.40;99.90
23729;DHT22;12045;60.214;24.724;2022-12-11T16:50:15;-1.10;99.90
23729;DHT22;12045;60.214;24.724;2022-12-11T16:52:44;-0.80;99.90
23729;DHT22;12045;60.214;24.724;2022-12-11T16:55:12;-1.70;99.90
23729;DHT22;12045;60.214;24.724;2022-12-11T16:57:41;-1.20;99.90
23729;DHT22;12045;60.214;24.724;2022-12-11T17:00:10;-0.80;99.90
23729;DHT22;12045;60.214;24.724;2022-12-11T17:02:40;-1.70;99.90
23729;DHT22;12045;60.214;24.724;2022-12-11T17:05:08;-1.40;99.90
23729;DHT22;12045;60.214;24.724;2022-12-11T17:07:36;-1.50;99.90
23729;DHT22;12045;60.214;24.724;2022-12-11T17:10:04;-1.50;99.90
23729;DHT22;12045;60.214;24.724;2022-12-11T17:12:32;-1.40;99.90
23729;DHT22;12045;60.214;24.724;2022-12-11T17:14:59;-1.70;99.90
23729;DHT22;12045;60.214;24.724;2022-12-11T17:17:26;-1.80;99.90
23729;DHT22;12045;60.214;24.724;2022-12-11T17:19:55;-1.80;99.90
23729;DHT22;12045;60.214;24.724;2022-12-11T17:22:23;-1.60;99.90
23729;DHT22;12045;60.214;24.724;2022-12-11T17:24:50;-1.80;99.90
23729;DHT22;12045;60.214;24.724;2022-12-11T17:27:17;-1.80;99.90